createdAt,value
2023-05-20T00:02:10.524Z,18.22
2023-05-20T00:04:40.242Z,18.22
2023-05-20T00:07:07.392Z,18.21
2023-05-20T00:09:34.457Z,18.21
2023-05-20T00:12:02.322Z,18.21
2023-05-20T00:14:29.304Z,18.20
2023-05-20T00:16:56.150Z,18.19
2023-05-20T00:19:23.252Z,18.18
2023-05-20T00:21:50.147Z,18.18
2023-05-20T00:24:16.887Z,18.17
2023-05-20T00:26:43.733Z,18.15
2023-05-20T00:29:10.610Z,18.14
2023-05-20T00:31:37.507Z,18.13
2023-05-20T00:34:04.382Z,18.11
2023-05-20T00:36:31.827Z,18.09
2023-05-20T00:38:58.676Z,18.06
2023-05-20T00:41:25.728Z,18.04
2023-05-20T00:43:54.417Z,18.02
2023-05-20T00:46:22.916Z,17.96
2023-05-20T00:48:49.671Z,17.89
2023-05-20T00:51:16.423Z,17.86
2023-05-20T00:53:43.362Z,17.85
2023-05-20T00:56:10.206Z,17.84
2023-05-20T00:58:37.745Z,17.83
2023-05-20T01:01:05.962Z,17.81
2023-05-20T01:03:33.528Z,17.80
2023-05-20T01:06:00.654Z,17.79
2023-05-20T01:08:28.043Z,17.76
2023-05-20T01:11:03.446Z,17.74
2023-05-20T01:13:33.702Z,17.70
2023-05-20T01:16:00.462Z,17.62
2023-05-20T01:18:29.627Z,17.53
2023-05-20T01:21:01.086Z,17.48
2023-05-20T01:23:47.468Z,17.46
2023-05-20T01:26:14.752Z,17.45
2023-05-20T01:28:43.120Z,17.45
2023-05-20T01:31:25.973Z,17.45
2023-05-20T01:33:56.056Z,17.44
2023-05-20T01:36:22.914Z,17.43
2023-05-20T01:38:49.774Z,17.40
2023-05-20T01:41:16.616Z,17.40
2023-05-20T01:43:43.762Z,17.39
2023-05-20T01:46:10.751Z,17.39
2023-05-20T01:48:37.970Z,17.38
2023-05-20T01:51:06.097Z,17.37
2023-05-20T01:53:33.544Z,17.37
2023-05-20T01:56:00.494Z,17.37
2023-05-20T01:58:28.021Z,17.37
2023-05-20T02:00:55.550Z,17.37
2023-05-20T02:03:22.964Z,17.38
2023-05-20T02:05:50.105Z,17.37
2023-05-20T02:08:17.799Z,17.35
2023-05-20T02:10:47.794Z,17.32
2023-05-20T02:13:14.582Z,17.29
2023-05-20T02:15:41.788Z,17.27
2023-05-20T02:18:08.836Z,17.26
2023-05-20T02:20:36.520Z,17.24
2023-05-20T02:23:08.106Z,17.22
2023-05-20T02:25:35.944Z,17.19
2023-05-20T02:28:05.333Z,17.17
2023-05-20T02:30:32.416Z,17.15
2023-05-20T02:33:04.029Z,17.14
2023-05-20T02:35:31.133Z,17.15
2023-05-20T02:37:58.170Z,17.15
2023-05-20T02:40:24.940Z,17.15
2023-05-20T02:42:51.770Z,17.15
2023-05-20T02:45:18.533Z,17.15
2023-05-20T02:47:45.824Z,17.15
2023-05-20T02:50:12.739Z,17.17
2023-05-20T02:52:41.781Z,17.18
2023-05-20T02:55:09.504Z,17.18
2023-05-20T02:57:37.837Z,17.21
2023-05-20T03:00:07.728Z,17.24
2023-05-20T03:02:34.991Z,17.27
2023-05-20T03:05:03.539Z,17.30
2023-05-20T03:07:33.725Z,17.34
2023-05-20T03:10:02.347Z,17.38
2023-05-20T03:12:30.326Z,17.42
2023-05-20T03:14:58.626Z,17.47
2023-05-20T03:17:25.661Z,17.51
2023-05-20T03:19:52.634Z,17.57
2023-05-20T03:22:19.553Z,17.63
2023-05-20T03:24:48.036Z,17.67
2023-05-20T03:27:15.104Z,17.74
2023-05-20T03:29:42.141Z,17.82
2023-05-20T03:32:10.886Z,17.89
2023-05-20T03:34:38.220Z,17.96
2023-05-20T03:37:05.384Z,18.03
2023-05-20T03:39:32.296Z,18.10
2023-05-20T03:42:00.275Z,18.17
2023-05-20T03:44:27.180Z,18.24
2023-05-20T03:46:55.134Z,18.31
2023-05-20T03:49:22.309Z,18.38
2023-05-20T03:51:49.025Z,18.43
2023-05-20T03:54:16.796Z,18.48
2023-05-20T03:56:46.478Z,18.58
2023-05-20T03:59:13.250Z,18.66
2023-05-20T04:01:40.102Z,18.74
2023-05-20T04:04:07.089Z,18.83
2023-05-20T04:06:33.985Z,18.89
2023-05-20T04:09:01.246Z,18.95
2023-05-20T04:11:28.798Z,19.04
2023-05-20T04:13:55.653Z,19.13
2023-05-20T04:16:23.637Z,19.21
2023-05-20T04:18:51.817Z,19.28
2023-05-20T04:21:18.788Z,19.34
2023-05-20T04:23:45.730Z,19.37
2023-05-20T04:26:12.681Z,19.32
2023-05-20T04:28:41.306Z,19.35
2023-05-20T04:31:08.316Z,19.32
2023-05-20T04:33:39.238Z,19.35
2023-05-20T04:36:09.046Z,19.48
2023-05-20T04:38:36.792Z,19.64
2023-05-20T04:41:04.483Z,19.73
2023-05-20T04:43:33.379Z,19.76
2023-05-20T04:46:00.932Z,19.83
2023-05-20T04:48:28.405Z,19.92
2023-05-20T04:50:55.372Z,20.02
2023-05-20T04:53:22.797Z,19.96
2023-05-20T04:55:53.346Z,19.91
2023-05-20T04:58:23.650Z,19.95
2023-05-20T05:00:51.249Z,20.10
2023-05-20T05:03:18.096Z,20.23
2023-05-20T05:05:44.921Z,20.37
2023-05-20T05:08:12.009Z,20.51
2023-05-20T05:10:42.788Z,20.65
2023-05-20T05:13:10.335Z,20.75
2023-05-20T05:15:39.215Z,20.78
2023-05-20T05:18:06.765Z,20.87
2023-05-20T05:20:34.449Z,21.01
2023-05-20T05:23:01.723Z,21.12
2023-05-20T05:25:30.238Z,21.20
2023-05-20T05:27:58.455Z,21.33
2023-05-20T05:30:26.105Z,21.37
2023-05-20T05:32:53.474Z,21.47
2023-05-20T05:35:20.746Z,21.59
2023-05-20T05:37:47.686Z,21.67
2023-05-20T05:40:15.007Z,21.73
2023-05-20T05:42:42.431Z,21.82
2023-05-20T05:45:10.608Z,21.92
2023-05-20T05:47:37.692Z,22.04
2023-05-20T05:50:05.798Z,22.18
2023-05-20T05:52:33.456Z,22.30
2023-05-20T05:55:02.408Z,22.38
2023-05-20T05:57:30.066Z,22.49
2023-05-20T05:59:56.928Z,22.62
2023-05-20T06:02:24.599Z,22.65
2023-05-20T06:04:51.619Z,22.67
2023-05-20T06:07:19.691Z,22.72
2023-05-20T06:09:46.767Z,22.84
2023-05-20T06:12:14.186Z,23.19
2023-05-20T06:14:41.539Z,23.44
2023-05-20T06:17:08.444Z,23.58
2023-05-20T06:19:35.575Z,23.91
2023-05-20T06:22:02.713Z,24.37
2023-05-20T06:24:30.388Z,24.87
2023-05-20T06:26:57.222Z,25.17
2023-05-20T06:29:24.343Z,25.20
2023-05-20T06:31:51.196Z,25.12
2023-05-20T06:34:17.946Z,25.07
2023-05-20T06:36:44.980Z,25.12
2023-05-20T06:39:11.889Z,25.11
2023-05-20T06:41:39.609Z,25.10
2023-05-20T06:44:10.089Z,25.10
2023-05-20T06:46:55.634Z,25.07
2023-05-20T06:49:23.521Z,25.24
2023-05-20T06:51:51.005Z,25.65
2023-05-20T06:54:19.179Z,25.73
2023-05-20T06:56:46.380Z,25.71
2023-05-20T06:59:14.518Z,25.61
2023-05-20T07:01:41.517Z,25.50
2023-05-20T07:04:08.504Z,25.57
2023-05-20T07:06:36.112Z,25.79
2023-05-20T07:09:03.651Z,25.94
2023-05-20T07:11:30.521Z,25.92
2023-05-20T07:13:57.383Z,25.92
2023-05-20T07:16:25.209Z,25.90
2023-05-20T07:18:54.924Z,25.91
2023-05-20T07:21:21.815Z,25.92
2023-05-20T07:23:59.062Z,25.94
2023-05-20T07:26:26.258Z,25.95
2023-05-20T07:28:53.580Z,25.93
2023-05-20T07:31:20.348Z,25.78
2023-05-20T07:33:48.333Z,25.73
2023-05-20T07:36:15.280Z,25.80
2023-05-20T07:38:56.578Z,25.81
2023-05-20T07:41:30.524Z,25.83
2023-05-20T07:43:57.385Z,25.97
2023-05-20T07:46:24.270Z,26.05
2023-05-20T07:48:51.160Z,26.09
2023-05-20T07:51:18.425Z,26.20
2023-05-20T07:53:45.407Z,26.37
2023-05-20T07:56:12.306Z,26.42
2023-05-20T07:58:42.291Z,26.41
2023-05-20T08:01:11.032Z,26.35
2023-05-20T08:03:38.372Z,26.25
2023-05-20T08:06:11.815Z,26.15
2023-05-20T08:08:41.014Z,26.22
2023-05-20T08:11:12.088Z,26.30
2023-05-20T08:13:40.750Z,26.26
2023-05-20T08:16:08.017Z,26.21
2023-05-20T08:18:37.160Z,26.22
2023-05-20T08:21:06.103Z,26.22
2023-05-20T08:23:37.236Z,25.91
2023-05-20T08:26:06.018Z,25.80
2023-05-20T08:28:33.164Z,25.90
2023-05-20T08:31:03.605Z,26.10
2023-05-20T08:33:31.499Z,26.37
2023-05-20T08:35:58.294Z,26.79
2023-05-20T08:38:25.102Z,26.86
2023-05-20T08:40:56.036Z,27.12
2023-05-20T08:43:23.885Z,27.07
2023-05-20T08:45:54.283Z,26.92
2023-05-20T08:48:26.127Z,26.76
2023-05-20T08:50:53.482Z,26.54
2023-05-20T08:53:21.946Z,26.48
2023-05-20T08:56:02.413Z,26.47
2023-05-20T08:58:30.171Z,26.59
2023-05-20T09:00:58.194Z,26.59
2023-05-20T09:03:25.186Z,26.65
2023-05-20T09:05:52.875Z,26.72
2023-05-20T09:08:24.516Z,26.74
2023-05-20T09:10:51.684Z,26.68
2023-05-20T09:13:18.534Z,26.64
2023-05-20T09:15:45.570Z,26.66
2023-05-20T09:18:12.616Z,26.68
2023-05-20T09:20:40.685Z,26.71
2023-05-20T09:23:09.310Z,26.55
2023-05-20T09:25:37.051Z,26.36
2023-05-20T09:28:06.306Z,26.13
2023-05-20T09:30:33.526Z,25.94
2023-05-20T09:33:01.041Z,25.91
2023-05-20T09:35:28.043Z,25.99
2023-05-20T09:37:56.355Z,26.01
2023-05-20T09:40:25.936Z,25.95
2023-05-20T09:43:03.153Z,25.89
2023-05-20T09:45:30.487Z,25.82
2023-05-20T09:47:57.382Z,25.78
2023-05-20T09:50:24.902Z,25.79
2023-05-20T09:52:52.437Z,25.70
2023-05-20T09:55:21.229Z,25.61
2023-05-20T09:57:48.106Z,25.67
2023-05-20T10:00:16.769Z,25.70
2023-05-20T10:02:45.552Z,25.77
2023-05-20T10:05:37.104Z,25.87
2023-05-20T10:08:26.071Z,25.99
2023-05-20T10:10:59.657Z,26.06
2023-05-20T10:13:54.233Z,26.04
2023-05-20T10:16:30.434Z,25.97
2023-05-20T10:19:08.323Z,26.02
2023-05-20T10:21:35.640Z,26.05
2023-05-20T10:24:07.007Z,26.06
2023-05-20T10:26:38.314Z,26.06
2023-05-20T10:29:17.955Z,26.10
2023-05-20T10:31:47.900Z,26.16
2023-05-20T10:34:16.883Z,26.24
2023-05-20T10:37:01.800Z,26.21
2023-05-20T10:39:29.536Z,26.13
2023-05-20T10:42:07.430Z,26.15
2023-05-20T10:44:45.004Z,26.25
2023-05-20T10:49:45.990Z,26.37
2023-05-20T10:52:13.451Z,26.45
2023-05-20T10:54:48.766Z,26.45
2023-05-20T10:57:18.164Z,26.41
2023-05-20T10:59:46.999Z,26.42
2023-05-20T11:02:17.535Z,26.42
2023-05-20T11:04:44.481Z,26.39
2023-05-20T11:07:11.369Z,26.42
2023-05-20T11:09:39.029Z,26.40
2023-05-20T11:12:06.180Z,26.36
2023-05-20T11:14:34.637Z,26.36
2023-05-20T11:17:01.505Z,26.39
2023-05-20T11:19:28.776Z,26.36
2023-05-20T11:21:55.822Z,26.44
2023-05-20T11:24:26.903Z,26.51
2023-05-20T11:26:55.281Z,26.59
2023-05-20T11:29:22.690Z,26.66
2023-05-20T11:31:52.373Z,26.67
2023-05-20T11:34:25.620Z,26.67
2023-05-20T11:36:56.815Z,26.53
2023-05-20T11:39:24.362Z,26.45
2023-05-20T11:41:51.245Z,26.56
2023-05-20T11:44:19.541Z,26.62
2023-05-20T11:46:47.715Z,26.64
2023-05-20T11:49:15.064Z,26.66
2023-05-20T11:51:42.830Z,26.61
2023-05-20T11:54:10.207Z,26.52
2023-05-20T11:56:37.726Z,26.41
2023-05-20T11:59:05.574Z,26.38
2023-05-20T12:01:40.453Z,26.40
2023-05-20T12:04:08.374Z,26.44
2023-05-20T12:06:39.149Z,26.46
2023-05-20T12:09:07.016Z,26.49
2023-05-20T12:11:35.234Z,26.49
2023-05-20T12:14:03.426Z,26.51
2023-05-20T12:16:31.650Z,26.52
2023-05-20T12:18:58.485Z,26.52
2023-05-20T12:21:26.445Z,26.54
2023-05-20T12:23:56.945Z,26.52
2023-05-20T12:26:25.179Z,26.47
2023-05-20T12:28:53.670Z,26.43
2023-05-20T12:31:20.474Z,26.41
2023-05-20T12:33:47.651Z,26.42
2023-05-20T12:36:14.811Z,26.44
2023-05-20T12:38:41.720Z,26.44
2023-05-20T12:41:08.598Z,26.42
2023-05-20T12:43:37.235Z,26.40
2023-05-20T12:46:04.464Z,26.42
2023-05-20T12:48:31.476Z,26.43
2023-05-20T12:50:58.329Z,26.45
2023-05-20T12:53:25.673Z,26.46
2023-05-20T12:55:52.445Z,26.41
2023-05-20T12:58:19.321Z,26.41
2023-05-20T13:00:46.496Z,26.42
2023-05-20T13:03:13.794Z,26.41
2023-05-20T13:05:41.048Z,26.42
2023-05-20T13:08:09.532Z,26.46
2023-05-20T13:10:37.265Z,26.55
2023-05-20T13:13:04.976Z,26.58
2023-05-20T13:15:35.504Z,26.58
2023-05-20T13:18:05.372Z,26.58
2023-05-20T13:20:32.275Z,26.57
2023-05-20T13:22:59.075Z,26.54
2023-05-20T13:25:25.976Z,26.58
2023-05-20T13:27:53.118Z,26.59
2023-05-20T13:30:20.074Z,26.59
2023-05-20T13:32:47.436Z,26.62
2023-05-20T13:35:16.252Z,26.64
2023-05-20T13:37:44.911Z,26.64
2023-05-20T13:40:12.639Z,26.64
2023-05-20T13:42:39.654Z,26.61
2023-05-20T13:45:07.338Z,26.56
2023-05-20T13:47:35.021Z,26.57
2023-05-20T13:50:03.283Z,26.57
2023-05-20T13:52:30.383Z,26.47
2023-05-20T13:54:57.133Z,26.39
2023-05-20T13:57:23.906Z,26.36
2023-05-20T13:59:50.767Z,26.33
2023-05-20T14:02:18.171Z,26.31
2023-05-20T14:04:46.363Z,26.32
2023-05-20T14:07:13.240Z,26.32
2023-05-20T14:09:40.396Z,26.35
2023-05-20T14:12:07.221Z,26.35
2023-05-20T14:14:34.928Z,26.36
2023-05-20T14:17:02.056Z,26.36
2023-05-20T14:19:29.470Z,26.37
2023-05-20T14:21:58.277Z,26.36
2023-05-20T14:24:25.264Z,26.34
2023-05-20T14:26:52.303Z,26.33
2023-05-20T14:29:19.171Z,26.29
2023-05-20T14:31:46.450Z,26.25
2023-05-20T14:34:13.494Z,26.20
2023-05-20T14:36:40.631Z,26.18
2023-05-20T14:39:07.415Z,26.19
2023-05-20T14:41:34.635Z,26.20
2023-05-20T14:44:01.427Z,26.21
2023-05-20T14:46:28.355Z,26.23
2023-05-20T14:48:55.282Z,26.24
2023-05-20T14:51:22.120Z,26.25
2023-05-20T14:53:48.904Z,26.27
2023-05-20T14:56:15.982Z,26.28
2023-05-20T14:58:43.008Z,26.29
2023-05-20T15:01:09.884Z,26.30
2023-05-20T15:03:36.856Z,26.32
2023-05-20T15:06:03.871Z,26.31
2023-05-20T15:08:30.994Z,26.28
2023-05-20T15:10:57.862Z,26.25
2023-05-20T15:13:26.842Z,26.19
2023-05-20T15:15:54.113Z,26.14
2023-05-20T15:18:21.966Z,26.11
2023-05-20T15:20:48.919Z,26.08
2023-05-20T15:23:17.193Z,26.04
2023-05-20T15:25:44.256Z,25.98
2023-05-20T15:28:11.131Z,25.94
2023-05-20T15:30:38.276Z,25.91
2023-05-20T15:33:05.813Z,25.89
2023-05-20T15:35:32.960Z,25.86
2023-05-20T15:37:59.892Z,25.82
2023-05-20T15:40:27.705Z,25.78
2023-05-20T15:42:54.653Z,25.76
2023-05-20T15:45:21.469Z,25.74
2023-05-20T15:47:48.650Z,25.71
2023-05-20T15:50:15.684Z,25.71
2023-05-20T15:52:42.997Z,25.69
2023-05-20T15:55:10.530Z,25.67
2023-05-20T15:57:37.989Z,25.64
2023-05-20T16:00:08.812Z,25.61
2023-05-20T16:02:37.638Z,25.57
2023-05-20T16:05:05.192Z,25.53
2023-05-20T16:07:32.171Z,25.49
2023-05-20T16:09:59.520Z,25.47
2023-05-20T16:12:26.285Z,25.42
2023-05-20T16:14:53.726Z,25.38
2023-05-20T16:17:21.268Z,25.36
2023-05-20T16:19:48.319Z,25.33
2023-05-20T16:22:17.716Z,25.28
2023-05-20T16:24:44.583Z,25.24
2023-05-20T16:27:11.475Z,25.20
2023-05-20T16:29:39.292Z,25.16
2023-05-20T16:32:06.552Z,25.13
2023-05-20T16:34:33.550Z,25.10
2023-05-20T16:37:00.367Z,25.07
2023-05-20T16:39:27.208Z,25.03
2023-05-20T16:41:54.259Z,24.98
2023-05-20T16:44:21.005Z,24.94
2023-05-20T16:46:47.943Z,24.87
2023-05-20T16:49:14.805Z,24.82
2023-05-20T16:51:41.706Z,24.75
2023-05-20T16:54:08.479Z,24.70
2023-05-20T16:56:36.449Z,24.65
2023-05-20T16:59:03.246Z,24.59
2023-05-20T17:01:30.143Z,24.54
2023-05-20T17:03:57.046Z,24.49
2023-05-20T17:06:24.074Z,24.44
2023-05-20T17:08:50.899Z,24.40
2023-05-20T17:11:17.667Z,24.34
2023-05-20T17:13:44.352Z,24.29
2023-05-20T17:16:11.601Z,24.24
2023-05-20T17:18:38.624Z,24.20
2023-05-20T17:21:05.457Z,24.15
2023-05-20T17:23:32.311Z,24.10
2023-05-20T17:25:59.379Z,24.05
2023-05-20T17:28:26.895Z,24.01
2023-05-20T17:30:53.727Z,23.96
2023-05-20T17:33:21.246Z,23.92
2023-05-20T17:35:48.021Z,23.88
2023-05-20T17:38:14.750Z,23.83
2023-05-20T17:40:41.490Z,23.80
2023-05-20T17:43:08.332Z,23.75
2023-05-20T17:45:35.660Z,23.71
2023-05-20T17:48:07.739Z,23.67
2023-05-20T17:50:36.245Z,23.62
2023-05-20T17:53:03.502Z,23.58
2023-05-20T17:55:31.988Z,23.53
2023-05-20T17:58:01.395Z,23.48
2023-05-20T18:00:28.402Z,23.44
2023-05-20T18:02:58.865Z,23.40
2023-05-20T18:05:26.229Z,23.35
2023-05-20T18:07:53.073Z,23.30
2023-05-20T18:10:20.042Z,23.26
2023-05-20T18:12:47.201Z,23.21
2023-05-20T18:15:15.037Z,23.17
2023-05-20T18:17:42.185Z,23.11
2023-05-20T18:20:10.224Z,23.05
2023-05-20T18:22:37.042Z,22.99
2023-05-20T18:25:04.715Z,22.90
2023-05-20T18:27:31.770Z,22.82
2023-05-20T18:29:59.229Z,22.75
2023-05-20T18:32:28.125Z,22.67
2023-05-20T18:34:54.930Z,22.59
2023-05-20T18:37:22.005Z,22.47
2023-05-20T18:39:49.284Z,22.38
2023-05-20T18:42:16.622Z,22.30
2023-05-20T18:44:43.442Z,22.21
2023-05-20T18:47:11.257Z,22.12
2023-05-20T18:49:38.219Z,22.04
2023-05-20T18:52:05.773Z,21.97
2023-05-20T18:54:32.801Z,21.89
2023-05-20T18:56:59.679Z,21.82
2023-05-20T18:59:26.623Z,21.75
2023-05-20T19:01:53.574Z,21.68
2023-05-20T19:04:20.250Z,21.63
2023-05-20T19:06:47.681Z,21.57
2023-05-20T19:09:14.556Z,21.50
2023-05-20T19:11:41.479Z,21.46
2023-05-20T19:14:08.538Z,21.42
2023-05-20T19:16:35.811Z,21.38
2023-05-20T19:19:02.564Z,21.35
2023-05-20T19:21:30.766Z,21.31
2023-05-20T19:23:57.724Z,21.25
2023-05-20T19:26:25.875Z,21.19
2023-05-20T19:28:53.129Z,21.15
2023-05-20T19:31:22.920Z,21.10
2023-05-20T19:33:50.593Z,21.07
2023-05-20T19:36:17.763Z,21.05
2023-05-20T19:38:47.664Z,21.03
2023-05-20T19:41:15.635Z,21.00
2023-05-20T19:43:42.414Z,20.97
2023-05-20T19:46:10.867Z,20.95
2023-05-20T19:48:37.952Z,20.93
2023-05-20T19:51:05.278Z,20.92
2023-05-20T19:53:32.434Z,20.88
2023-05-20T19:55:59.310Z,20.85
2023-05-20T19:58:26.129Z,20.81
2023-05-20T20:00:52.958Z,20.78
2023-05-20T20:03:19.932Z,20.75
2023-05-20T20:05:46.840Z,20.73
2023-05-20T20:08:14.355Z,20.69
2023-05-20T20:10:41.708Z,20.67
2023-05-20T20:13:08.753Z,20.64
2023-05-20T20:15:35.947Z,20.60
2023-05-20T20:18:03.224Z,20.58
2023-05-20T20:20:39.364Z,20.55
2023-05-20T20:23:07.378Z,20.51
2023-05-20T20:25:39.374Z,20.48
2023-05-20T20:28:06.859Z,20.45
2023-05-20T20:30:34.608Z,20.41
2023-05-20T20:33:05.682Z,20.38
2023-05-20T20:35:33.799Z,20.35
2023-05-20T20:38:07.704Z,20.32
2023-05-20T20:40:38.964Z,20.29
2023-05-20T20:43:08.783Z,20.25
2023-05-20T20:45:36.479Z,20.22
2023-05-20T20:48:07.110Z,20.18
2023-05-20T20:50:35.181Z,20.15
2023-05-20T20:53:02.438Z,20.11
2023-05-20T20:55:30.263Z,20.08
2023-05-20T20:57:57.884Z,20.06
2023-05-20T21:00:26.259Z,20.01
2023-05-20T21:02:53.170Z,19.97
2023-05-20T21:05:20.978Z,19.94
2023-05-20T21:07:51.909Z,19.91
2023-05-20T21:10:18.868Z,19.88
2023-05-20T21:12:45.717Z,19.84
2023-05-20T21:15:14.295Z,19.82
2023-05-20T21:17:41.303Z,19.79
2023-05-20T21:20:09.170Z,19.77
2023-05-20T21:22:36.259Z,19.74
2023-05-20T21:25:03.545Z,19.72
2023-05-20T21:27:30.504Z,19.69
2023-05-20T21:29:57.726Z,19.67
2023-05-20T21:32:24.731Z,19.64
2023-05-20T21:34:51.699Z,19.62
2023-05-20T21:37:18.679Z,19.56
2023-05-20T21:39:45.496Z,19.52
2023-05-20T21:42:12.219Z,19.48
2023-05-20T21:44:39.183Z,19.45
2023-05-20T21:47:06.007Z,19.41
2023-05-20T21:49:33.132Z,19.37
2023-05-20T21:52:00.111Z,19.33
2023-05-20T21:54:27.050Z,19.29
2023-05-20T21:56:53.743Z,19.26
2023-05-20T21:59:20.507Z,19.24
2023-05-20T22:01:49.783Z,19.19
2023-05-20T22:04:18.344Z,19.15
2023-05-20T22:06:45.185Z,19.11
2023-05-20T22:09:12.034Z,19.08
2023-05-20T22:11:38.912Z,19.03
2023-05-20T22:14:05.934Z,19.00
2023-05-20T22:16:33.334Z,18.98
2023-05-20T22:19:02.143Z,18.95
2023-05-20T22:21:32.107Z,18.90
2023-05-20T22:24:01.346Z,18.86
2023-05-20T22:26:28.969Z,18.84
2023-05-20T22:28:55.744Z,18.81
2023-05-20T22:31:22.524Z,18.77
2023-05-20T22:33:50.238Z,18.72
2023-05-20T22:36:17.096Z,18.69
2023-05-20T22:38:43.893Z,18.67
2023-05-20T22:41:10.794Z,18.66
2023-05-20T22:43:37.667Z,18.64
2023-05-20T22:46:04.692Z,18.61
2023-05-20T22:48:32.151Z,18.59
2023-05-20T22:51:00.660Z,18.56
2023-05-20T22:53:27.482Z,18.52
2023-05-20T22:55:54.273Z,18.51
2023-05-20T22:58:22.102Z,18.49
2023-05-20T23:00:48.976Z,18.48
2023-05-20T23:03:15.800Z,18.46
2023-05-20T23:05:43.059Z,18.41
2023-05-20T23:08:10.282Z,18.40
2023-05-20T23:10:37.538Z,18.38
2023-05-20T23:13:04.320Z,18.37
2023-05-20T23:15:31.940Z,18.35
2023-05-20T23:17:58.912Z,18.32
2023-05-20T23:20:28.753Z,18.29
2023-05-20T23:22:55.804Z,18.26
2023-05-20T23:25:23.902Z,18.25
2023-05-20T23:27:50.692Z,18.23
2023-05-20T23:30:18.124Z,18.21
2023-05-20T23:32:45.027Z,18.16
2023-05-20T23:35:12.694Z,18.13
2023-05-20T23:37:41.431Z,18.12
2023-05-20T23:40:08.965Z,18.11
2023-05-20T23:42:36.228Z,18.09
2023-05-20T23:45:03.851Z,18.08
2023-05-20T23:47:31.216Z,18.06
2023-05-20T23:49:58.443Z,18.05
2023-05-20T23:52:25.886Z,18.01
2023-05-20T23:54:52.812Z,17.97
2023-05-20T23:57:20.323Z,17.95
2023-05-20T23:59:48.561Z,17.94
